createdAt,value
2023-05-13T00:01:16.537Z,19.07668
2023-05-13T00:06:18.465Z,17.9586
2023-05-13T00:11:19.866Z,19.47155
2023-05-13T00:16:21.366Z,20.53025
2023-05-13T00:21:22.871Z,19.86168
2023-05-13T00:26:24.294Z,19.17388
2023-05-13T00:31:25.797Z,16.50548
2023-05-13T00:36:27.233Z,19.25884
2023-05-13T00:41:28.640Z,18.35238
2023-05-13T00:46:30.310Z,20.221
2023-05-13T00:51:31.804Z,20.51037
2023-05-13T00:56:33.242Z,19.09435
2023-05-13T01:01:34.671Z,19.00123
2023-05-13T01:06:36.087Z,21.87257
2023-05-13T01:11:37.501Z,21.97458
2023-05-13T01:16:38.886Z,22.78849
2023-05-13T01:21:40.315Z,22.63872
2023-05-13T01:26:41.795Z,23.59218
2023-05-13T01:31:43.371Z,24.91334
2023-05-13T01:36:44.899Z,24.45612
2023-05-13T01:41:46.357Z,25.07882
2023-05-13T01:46:47.851Z,25.22085
2023-05-13T01:51:49.383Z,26.49021
2023-05-13T01:56:50.774Z,28.62499
2023-05-13T02:01:52.344Z,27.57219
2023-05-13T02:06:53.746Z,27.64287
2023-05-13T02:11:55.114Z,31.75754
2023-05-13T02:16:56.503Z,29.75601
2023-05-13T02:21:57.921Z,29.30947
2023-05-13T02:26:59.303Z,29.07154
2023-05-13T02:32:00.679Z,29.69774
2023-05-13T02:37:02.120Z,31.25367
2023-05-13T02:42:03.768Z,30.4473
2023-05-13T02:47:05.139Z,31.46216
2023-05-13T02:52:06.548Z,31.99743
2023-05-13T02:57:08.011Z,32.28543
2023-05-13T03:02:09.416Z,33.19412
2023-05-13T03:07:10.933Z,36.24262
2023-05-13T03:12:12.331Z,36.23115
2023-05-13T03:17:13.789Z,35.66205
2023-05-13T03:22:15.204Z,37.70969
2023-05-13T03:27:16.575Z,37.73025
2023-05-13T03:32:18.037Z,38.47399
2023-05-13T03:37:19.529Z,38.65478
2023-05-13T03:42:20.929Z,40.3682
2023-05-13T03:47:22.382Z,39.21564
2023-05-13T03:52:23.800Z,42.17982
2023-05-13T03:57:25.282Z,42.14025
2023-05-13T04:02:26.887Z,45.61106
2023-05-13T04:07:28.442Z,47.70922
2023-05-13T04:12:29.867Z,51.37845
2023-05-13T04:17:31.349Z,47.94507
2023-05-13T04:22:32.795Z,48.37387
2023-05-13T04:27:34.172Z,46.98645
2023-05-13T04:32:35.618Z,50.61596
2023-05-13T04:37:37.230Z,50.57357
2023-05-13T04:42:38.627Z,50.18814
2023-05-13T04:47:40.059Z,49.85008
2023-05-13T04:52:41.472Z,46.42394
2023-05-13T04:57:42.858Z,45.28406
2023-05-13T05:02:44.276Z,45.99238
2023-05-13T05:07:45.683Z,46.71942
2023-05-13T05:12:47.088Z,48.75672
2023-05-13T05:17:48.574Z,53.53272
2023-05-13T05:22:50.065Z,48.90768
2023-05-13T05:27:51.470Z,48.5398
2023-05-13T05:32:52.938Z,49.95071
2023-05-13T05:37:54.419Z,50.15806
2023-05-13T05:42:55.850Z,56.88692
2023-05-13T05:47:57.355Z,51.64199
2023-05-13T05:52:58.822Z,53.55897
2023-05-13T05:58:00.348Z,52.56333
2023-05-13T06:03:01.982Z,51.01552
2023-05-13T06:08:03.522Z,52.38609
2023-05-13T06:13:04.912Z,49.76715
2023-05-13T06:18:06.446Z,51.92074
2023-05-13T06:23:07.868Z,62.59602
2023-05-13T06:28:09.251Z,63.34941
2023-05-13T06:33:10.751Z,58.8436
2023-05-13T06:38:12.213Z,59.24338
2023-05-13T06:43:13.641Z,54.85194
2023-05-13T06:48:15.087Z,63.43807
2023-05-13T06:53:16.533Z,61.96345
2023-05-13T06:58:17.981Z,58.13698
2023-05-13T07:03:19.374Z,56.27424
2023-05-13T07:08:20.822Z,58.93408
2023-05-13T07:13:22.257Z,59.60005
2023-05-13T07:18:23.819Z,66.94107
2023-05-13T07:23:25.279Z,58.30883
2023-05-13T07:28:26.735Z,59.94706
2023-05-13T07:33:28.120Z,53.34477
2023-05-13T07:38:29.556Z,56.20565
2023-05-13T07:43:41.456Z,59.27233
2023-05-13T07:48:42.865Z,67.04537
2023-05-13T07:53:44.246Z,70.04545
2023-05-13T07:58:45.651Z,62.35636
2023-05-13T08:03:47.332Z,59.1546
2023-05-13T08:08:48.839Z,62.46031
2023-05-13T08:13:50.264Z,59.9867
2023-05-13T08:18:51.712Z,59.27657
2023-05-13T08:23:53.185Z,65.31531
2023-05-13T08:28:55.206Z,59.70173
2023-05-13T08:33:56.821Z,58.9442
2023-05-13T08:38:58.235Z,61.61584
2023-05-13T08:43:59.634Z,61.17574
2023-05-13T08:49:01.027Z,66.21541
2023-05-13T08:54:02.466Z,64.46001
2023-05-13T08:59:03.957Z,75.34996
2023-05-13T09:04:05.405Z,67.03644
2023-05-13T09:09:06.831Z,65.19882
2023-05-13T09:14:08.214Z,70.13106
2023-05-13T09:19:09.842Z,64.67448
2023-05-13T09:24:11.727Z,68.35319
2023-05-13T09:29:13.195Z,66.69173
2023-05-13T09:34:14.625Z,68.70886
2023-05-13T09:39:16.011Z,78.71947
2023-05-13T09:44:17.365Z,77.97729
2023-05-13T09:49:18.839Z,66.08209
2023-05-13T09:54:20.254Z,68.46426
2023-05-13T09:59:21.669Z,69.8104
2023-05-13T10:04:23.108Z,75.96717
2023-05-13T10:09:24.578Z,75.65972
2023-05-13T10:14:25.982Z,72.10187
2023-05-13T10:19:27.381Z,78.37768
2023-05-13T10:24:28.798Z,76.31323
2023-05-13T10:29:30.275Z,73.59178
2023-05-13T10:34:31.685Z,70.56451
2023-05-13T10:39:33.136Z,76.15815
2023-05-13T10:44:34.555Z,78.61835
2023-05-13T10:49:35.940Z,73.35168
2023-05-13T10:54:37.381Z,73.76198
2023-05-13T10:59:38.771Z,70.25656
2023-05-13T11:04:40.191Z,71.17177
2023-05-13T11:09:41.604Z,76.21828
2023-05-13T11:14:43.030Z,72.44409
2023-05-13T11:19:44.427Z,75.02066
2023-05-13T11:24:45.818Z,76.46537
2023-05-13T11:29:47.177Z,83.82319
2023-05-13T11:34:48.530Z,82.54836
2023-05-13T11:39:50.071Z,79.83219
2023-05-13T11:44:51.439Z,84.5044
2023-05-13T11:49:52.820Z,82.33924
2023-05-13T11:54:54.285Z,80.91171
2023-05-13T11:59:55.738Z,75.44274
2023-05-13T12:04:57.196Z,84.10386
2023-05-13T12:09:58.692Z,76.89483
2023-05-13T12:15:00.184Z,81.36948
2023-05-13T12:20:01.614Z,83.08431
2023-05-13T12:25:03.031Z,81.00498
2023-05-13T12:30:04.405Z,79.59996
2023-05-13T12:35:05.808Z,78.53673
2023-05-13T12:40:07.210Z,77.08902
2023-05-13T12:45:08.652Z,75.99873
2023-05-13T12:50:10.136Z,81.08912
2023-05-13T12:55:11.541Z,79.99109
2023-05-13T13:00:12.921Z,83.69429
2023-05-13T13:05:14.290Z,82.47892
2023-05-13T13:10:15.681Z,78.72319
2023-05-13T13:15:17.068Z,83.55395
2023-05-13T13:20:18.456Z,82.74072
2023-05-13T13:25:20.091Z,90.08746
2023-05-13T13:30:21.823Z,82.67924
2023-05-13T13:35:23.446Z,77.96029
2023-05-13T13:40:25.114Z,73.15533
2023-05-13T13:45:26.555Z,82.09146
2023-05-13T13:50:27.992Z,74.14511
2023-05-13T13:55:29.353Z,69.9796
2023-05-13T14:00:30.758Z,71.52719
2023-05-13T14:05:32.180Z,68.77259
2023-05-13T14:10:33.583Z,70.01752
2023-05-13T14:15:35.035Z,60.16602
2023-05-13T14:20:36.479Z,64.15049
2023-05-13T14:25:37.859Z,62.93901
2023-05-13T14:30:39.292Z,59.9344
2023-05-13T14:35:40.670Z,64.18156
2023-05-13T14:40:42.025Z,58.33612
2023-05-13T14:45:48.690Z,62.7628
2023-05-13T14:50:50.100Z,56.99392
2023-05-13T14:55:51.746Z,55.57929
2023-05-13T15:01:03.873Z,56.55838
2023-05-13T15:06:05.340Z,52.66189
2023-05-13T15:11:06.741Z,50.564
2023-05-13T15:16:08.166Z,48.97019
2023-05-13T15:21:09.550Z,49.54815
2023-05-13T15:26:11.009Z,45.6058
2023-05-13T15:31:12.457Z,45.46728
2023-05-13T15:36:13.868Z,43.23454
2023-05-13T15:41:15.296Z,41.84305
2023-05-13T15:46:16.835Z,41.85045
2023-05-13T15:51:18.368Z,44.09438
2023-05-13T15:56:19.746Z,46.00337
2023-05-13T16:01:21.214Z,42.02337
2023-05-13T16:06:22.660Z,42.91372
2023-05-13T16:11:24.163Z,41.37807
2023-05-13T16:16:25.585Z,38.02546
2023-05-13T16:21:27.082Z,40.32208
2023-05-13T16:26:28.481Z,36.07893
2023-05-13T16:31:29.987Z,37.2521
2023-05-13T16:36:31.437Z,36.21422
2023-05-13T16:41:32.826Z,34.51934
2023-05-13T16:46:34.254Z,36.41787
2023-05-13T16:51:35.728Z,34.4885
2023-05-13T16:56:37.117Z,35.16779
2023-05-13T17:01:38.565Z,35.08536
2023-05-13T17:06:39.990Z,34.92604
2023-05-13T17:11:41.434Z,33.6932
2023-05-13T17:16:42.952Z,32.40482
2023-05-13T17:21:44.370Z,32.56787
2023-05-13T17:26:45.776Z,33.30358
2023-05-13T17:31:47.205Z,31.97993
2023-05-13T17:36:50.219Z,32.1507
2023-05-13T17:41:51.751Z,31.85012
2023-05-13T17:46:53.156Z,31.31821
2023-05-13T17:51:54.553Z,33.14781
2023-05-13T17:56:55.960Z,29.73186
2023-05-13T18:01:57.385Z,30.28104
2023-05-13T18:06:58.837Z,29.83599
2023-05-13T18:12:00.227Z,30.04379
2023-05-13T18:17:01.748Z,27.95921
2023-05-13T18:22:03.149Z,29.50663
2023-05-13T18:27:04.538Z,27.35448
2023-05-13T18:32:05.971Z,29.90657
2023-05-13T18:37:07.409Z,27.19833
2023-05-13T18:42:08.837Z,27.37505
2023-05-13T18:47:10.245Z,27.85542
2023-05-13T18:52:11.682Z,26.03909
2023-05-13T18:57:13.103Z,28.17433
2023-05-13T19:02:14.708Z,27.17844
2023-05-13T19:07:16.327Z,27.61846
2023-05-13T19:12:17.709Z,27.76552
2023-05-13T19:17:19.192Z,28.44094
2023-05-13T19:22:20.723Z,27.41025
2023-05-13T19:27:22.134Z,27.95013
2023-05-13T19:32:23.592Z,29.49129
2023-05-13T19:37:25.168Z,27.29396
2023-05-13T19:42:26.564Z,29.07408
2023-05-13T19:47:27.976Z,25.31295
2023-05-13T19:52:29.414Z,27.16681
2023-05-13T19:57:30.807Z,28.23099
2023-05-13T20:02:32.314Z,27.92813
2023-05-13T20:07:33.714Z,28.5848
2023-05-13T20:12:35.139Z,25.7571
2023-05-13T20:17:36.649Z,23.34492
2023-05-13T20:22:38.179Z,25.43641
2023-05-13T20:27:39.644Z,25.82034
2023-05-13T20:32:41.084Z,24.50923
2023-05-13T20:37:42.642Z,23.63401
2023-05-13T20:42:44.064Z,23.22206
2023-05-13T20:47:45.439Z,22.25548
2023-05-13T20:52:46.850Z,21.94472
2023-05-13T20:57:48.276Z,21.98292
2023-05-13T21:02:49.714Z,21.51579
2023-05-13T21:07:51.197Z,24.97365
2023-05-13T21:12:52.573Z,23.59643
2023-05-13T21:17:54.046Z,19.97797
2023-05-13T21:22:55.449Z,21.19251
2023-05-13T21:27:56.819Z,21.8762
2023-05-13T21:32:58.241Z,24.56179
2023-05-13T21:38:10.910Z,22.08624
2023-05-13T21:43:13.169Z,22.60027
2023-05-13T21:48:14.911Z,20.49232
2023-05-13T21:53:16.551Z,21.30838
2023-05-13T21:58:17.961Z,22.62458
2023-05-13T22:03:19.407Z,22.21189
2023-05-13T22:08:20.792Z,20.03826
2023-05-13T22:13:22.186Z,21.08649
2023-05-13T22:18:23.856Z,20.78229
2023-05-13T22:23:25.402Z,25.10946
2023-05-13T22:28:26.773Z,26.54642
2023-05-13T22:33:28.138Z,23.81756
2023-05-13T22:38:29.577Z,21.64492
2023-05-13T22:43:30.997Z,26.00644
2023-05-13T22:48:32.416Z,24.399
2023-05-13T22:53:33.816Z,23.20401
2023-05-13T22:58:35.207Z,23.20853
2023-05-13T23:03:36.706Z,22.78714
2023-05-13T23:08:38.170Z,23.55209
2023-05-13T23:13:39.536Z,21.50968
2023-05-13T23:18:40.953Z,20.42293
2023-05-13T23:23:42.379Z,15.63809
2023-05-13T23:28:43.846Z,16.10009
2023-05-13T23:33:45.368Z,21.00596
2023-05-13T23:38:46.768Z,17.68515
2023-05-13T23:43:48.156Z,19.24912
2023-05-13T23:48:49.550Z,20.56606
2023-05-13T23:53:51.049Z,19.65383
2023-05-13T23:58:52.422Z,19.51478
